sensor_id;sensor_type;location;lat;lon;timestamp;temperature;humidity
67748;HTU21D;54543;50.712;6.070;2023-12-20T00:02:21;7.34;118.67
67748;HTU21D;54543;50.712;6.070;2023-12-20T00:04:47;7.38;118.44
67748;HTU21D;54543;50.712;6.070;2023-12-20T00:07:13;7.38;118.23
67748;HTU21D;54543;50.712;6.070;2023-12-20T00:09:38;7.38;118.25
67748;HTU21D;54543;50.712;6.070;2023-12-20T00:12:04;7.38;118.50
67748;HTU21D;54543;50.712;6.070;2023-12-20T00:14:30;7.34;118.99
67748;HTU21D;54543;50.712;6.070;2023-12-20T00:16:55;7.38;118.66
67748;HTU21D;54543;50.712;6.070;2023-12-20T00:19:21;7.40;118.34
67748;HTU21D;54543;50.712;6.070;2023-12-20T00:21:46;7.39;118.37
67748;HTU21D;54543;50.712;6.070;2023-12-20T00:24:12;7.38;118.70
67748;HTU21D;54543;50.712;6.070;2023-12-20T00:26:37;7.32;118.73
67748;HTU21D;54543;50.712;6.070;2023-12-20T00:29:03;7.35;118.29
67748;HTU21D;54543;50.712;6.070;2023-12-20T00:31:29;7.35;118.24
67748;HTU21D;54543;50.712;6.070;2023-12-20T00:33:54;7.31;118.96
67748;HTU21D;54543;50.712;6.070;2023-12-20T00:36:20;7.29;118.99
67748;HTU21D;54543;50.712;6.070;2023-12-20T00:38:47;7.29;118.79
67748;HTU21D;54543;50.712;6.070;2023-12-20T00:41:13;7.26;118.67
67748;HTU21D;54543;50.712;6.070;2023-12-20T00:43:39;7.18;117.95
67748;HTU21D;54543;50.712;6.070;2023-12-20T00:46:04;7.13;116.41
67748;HTU21D;54543;50.712;6.070;2023-12-20T00:48:30;6.98;116.51
67748;HTU21D;54543;50.712;6.070;2023-12-20T00:50:57;6.87;116.33
67748;HTU21D;54543;50.712;6.070;2023-12-20T00:53:23;6.73;115.62
67748;HTU21D;54543;50.712;6.070;2023-12-20T00:55:48;6.68;114.64
67748;HTU21D;54543;50.712;6.070;2023-12-20T00:58:15;6.54;114.29
67748;HTU21D;54543;50.712;6.070;2023-12-20T01:00:41;6.46;114.98
67748;HTU21D;54543;50.712;6.070;2023-12-20T01:03:08;6.37;115.23
67748;HTU21D;54543;50.712;6.070;2023-12-20T01:05:33;6.27;114.38
67748;HTU21D;54543;50.712;6.070;2023-12-20T01:07:59;6.19;113.54
67748;HTU21D;54543;50.712;6.070;2023-12-20T01:10:25;6.12;114.26
67748;HTU21D;54543;50.712;6.070;2023-12-20T01:12:53;6.08;114.76
67748;HTU21D;54543;50.712;6.070;2023-12-20T01:15:19;6.05;115.07
67748;HTU21D;54543;50.712;6.070;2023-12-20T01:17:44;5.98;114.90
67748;HTU21D;54543;50.712;6.070;2023-12-20T01:20:10;5.91;114.89
67748;HTU21D;54543;50.712;6.070;2023-12-20T01:22:36;5.89;115.16
67748;HTU21D;54543;50.712;6.070;2023-12-20T01:25:01;5.87;115.22
67748;HTU21D;54543;50.712;6.070;2023-12-20T01:27:28;5.83;115.01
67748;HTU21D;54543;50.712;6.070;2023-12-20T01:29:53;5.85;115.28
67748;HTU21D;54543;50.712;6.070;2023-12-20T01:32:19;5.90;114.92
67748;HTU21D;54543;50.712;6.070;2023-12-20T01:34:45;5.81;114.28
67748;HTU21D;54543;50.712;6.070;2023-12-20T01:37:11;5.83;115.08
67748;HTU21D;54543;50.712;6.070;2023-12-20T01:39:36;5.79;115.21
67748;HTU21D;54543;50.712;6.070;2023-12-20T01:42:02;5.80;115.44
67748;HTU21D;54543;50.712;6.070;2023-12-20T01:44:27;5.78;115.54
67748;HTU21D;54543;50.712;6.070;2023-12-20T01:46:53;5.78;115.54
67748;HTU21D;54543;50.712;6.070;2023-12-20T01:49:19;5.79;115.71
67748;HTU21D;54543;50.712;6.070;2023-12-20T01:51:46;5.78;115.80
67748;HTU21D;54543;50.712;6.070;2023-12-20T01:54:12;5.79;115.57
67748;HTU21D;54543;50.712;6.070;2023-12-20T01:56:38;5.80;115.60
67748;HTU21D;54543;50.712;6.070;2023-12-20T01:59:04;5.78;115.64
67748;HTU21D;54543;50.712;6.070;2023-12-20T02:01:30;5.80;115.48
67748;HTU21D;54543;50.712;6.070;2023-12-20T02:03:56;5.78;115.37
67748;HTU21D;54543;50.712;6.070;2023-12-20T02:06:23;5.75;115.19
67748;HTU21D;54543;50.712;6.070;2023-12-20T02:08:50;5.76;115.24
67748;HTU21D;54543;50.712;6.070;2023-12-20T02:11:16;5.76;115.02
67748;HTU21D;54543;50.712;6.070;2023-12-20T02:13:41;5.75;114.73
67748;HTU21D;54543;50.712;6.070;2023-12-20T02:16:07;5.75;114.12
67748;HTU21D;54543;50.712;6.070;2023-12-20T02:18:33;5.70;114.29
67748;HTU21D;54543;50.712;6.070;2023-12-20T02:20:59;5.68;114.51
67748;HTU21D;54543;50.712;6.070;2023-12-20T02:23:24;5.67;114.67
67748;HTU21D;54543;50.712;6.070;2023-12-20T02:25:50;5.66;114.32
67748;HTU21D;54543;50.712;6.070;2023-12-20T02:28:16;5.65;114.32
67748;HTU21D;54543;50.712;6.070;2023-12-20T02:30:42;5.64;114.40
67748;HTU21D;54543;50.712;6.070;2023-12-20T02:33:08;5.64;114.41
67748;HTU21D;54543;50.712;6.070;2023-12-20T02:35:36;5.66;114.24
67748;HTU21D;54543;50.712;6.070;2023-12-20T02:38:02;5.64;114.00
67748;HTU21D;54543;50.712;6.070;2023-12-20T02:40:28;5.64;114.14
67748;HTU21D;54543;50.712;6.070;2023-12-20T02:42:53;5.61;114.19
67748;HTU21D;54543;50.712;6.070;2023-12-20T02:45:19;5.61;114.32
67748;HTU21D;54543;50.712;6.070;2023-12-20T02:47:44;5.62;114.11
67748;HTU21D;54543;50.712;6.070;2023-12-20T02:50:10;5.60;114.08
67748;HTU21D;54543;50.712;6.070;2023-12-20T02:52:36;5.62;113.86
67748;HTU21D;54543;50.712;6.070;2023-12-20T02:55:01;5.60;113.72
67748;HTU21D;54543;50.712;6.070;2023-12-20T02:57:27;5.62;113.51
67748;HTU21D;54543;50.712;6.070;2023-12-20T02:59:52;5.57;113.70
67748;HTU21D;54543;50.712;6.070;2023-12-20T03:02:18;5.56;114.06
67748;HTU21D;54543;50.712;6.070;2023-12-20T03:04:43;5.59;114.01
67748;HTU21D;54543;50.712;6.070;2023-12-20T03:07:09;5.57;113.96
67748;HTU21D;54543;50.712;6.070;2023-12-20T03:09:34;5.63;113.53
67748;HTU21D;54543;50.712;6.070;2023-12-20T03:12:00;5.57;113.93
67748;HTU21D;54543;50.712;6.070;2023-12-20T03:14:25;5.63;113.47
67748;HTU21D;54543;50.712;6.070;2023-12-20T03:16:51;5.63;113.03
67748;HTU21D;54543;50.712;6.070;2023-12-20T03:19:18;5.59;113.43
67748;HTU21D;54543;50.712;6.070;2023-12-20T03:21:44;5.63;113.16
67748;HTU21D;54543;50.712;6.070;2023-12-20T03:24:10;5.60;113.42
67748;HTU21D;54543;50.712;6.070;2023-12-20T03:26:36;5.60;113.45
67748;HTU21D;54543;50.712;6.070;2023-12-20T03:29:01;5.61;113.59
67748;HTU21D;54543;50.712;6.070;2023-12-20T03:31:27;5.57;113.58
67748;HTU21D;54543;50.712;6.070;2023-12-20T03:33:52;5.57;113.68
67748;HTU21D;54543;50.712;6.070;2023-12-20T03:36:19;5.60;113.61
67748;HTU21D;54543;50.712;6.070;2023-12-20T03:38:45;5.60;113.67
67748;HTU21D;54543;50.712;6.070;2023-12-20T03:41:11;5.60;113.61
67748;HTU21D;54543;50.712;6.070;2023-12-20T03:43:36;5.57;113.61
67748;HTU21D;54543;50.712;6.070;2023-12-20T03:46:03;5.59;113.34
67748;HTU21D;54543;50.712;6.070;2023-12-20T03:48:30;5.59;113.27
67748;HTU21D;54543;50.712;6.070;2023-12-20T03:50:56;5.56;112.96
67748;HTU21D;54543;50.712;6.070;2023-12-20T03:53:22;5.59;112.62
67748;HTU21D;54543;50.712;6.070;2023-12-20T03:55:48;5.56;112.70
67748;HTU21D;54543;50.712;6.070;2023-12-20T03:58:13;5.56;113.08
67748;HTU21D;54543;50.712;6.070;2023-12-20T04:00:39;5.62;112.40
67748;HTU21D;54543;50.712;6.070;2023-12-20T04:03:04;5.57;112.53
67748;HTU21D;54543;50.712;6.070;2023-12-20T04:05:30;5.56;112.52
67748;HTU21D;54543;50.712;6.070;2023-12-20T04:07:55;5.56;112.61
67748;HTU21D;54543;50.712;6.070;2023-12-20T04:10:21;5.51;112.76
67748;HTU21D;54543;50.712;6.070;2023-12-20T04:12:47;5.51;112.93
67748;HTU21D;54543;50.712;6.070;2023-12-20T04:15:12;5.52;112.22
67748;HTU21D;54543;50.712;6.070;2023-12-20T04:17:38;5.52;112.41
67748;HTU21D;54543;50.712;6.070;2023-12-20T04:20:04;5.50;112.89
67748;HTU21D;54543;50.712;6.070;2023-12-20T04:22:30;5.50;112.86
67748;HTU21D;54543;50.712;6.070;2023-12-20T04:24:55;5.51;112.85
67748;HTU21D;54543;50.712;6.070;2023-12-20T04:27:21;5.51;112.99
67748;HTU21D;54543;50.712;6.070;2023-12-20T04:29:46;5.48;113.01
67748;HTU21D;54543;50.712;6.070;2023-12-20T04:32:12;5.54;113.26
67748;HTU21D;54543;50.712;6.070;2023-12-20T04:34:38;5.54;112.74
67748;HTU21D;54543;50.712;6.070;2023-12-20T04:37:04;5.51;112.53
67748;HTU21D;54543;50.712;6.070;2023-12-20T04:39:29;5.52;112.25
67748;HTU21D;54543;50.712;6.070;2023-12-20T04:41:55;5.52;112.22
67748;HTU21D;54543;50.712;6.070;2023-12-20T04:44:20;5.53;111.83
67748;HTU21D;54543;50.712;6.070;2023-12-20T04:46:46;5.51;111.70
67748;HTU21D;54543;50.712;6.070;2023-12-20T04:49:12;5.49;112.05
67748;HTU21D;54543;50.712;6.070;2023-12-20T04:51:37;5.48;112.27
67748;HTU21D;54543;50.712;6.070;2023-12-20T04:54:03;5.52;112.46
67748;HTU21D;54543;50.712;6.070;2023-12-20T04:56:29;5.48;112.18
67748;HTU21D;54543;50.712;6.070;2023-12-20T04:58:54;5.50;112.34
67748;HTU21D;54543;50.712;6.070;2023-12-20T05:01:20;5.51;111.95
67748;HTU21D;54543;50.712;6.070;2023-12-20T05:03:46;5.49;112.20
67748;HTU21D;54543;50.712;6.070;2023-12-20T05:06:12;5.51;112.07
67748;HTU21D;54543;50.712;6.070;2023-12-20T05:08:38;5.53;112.41
67748;HTU21D;54543;50.712;6.070;2023-12-20T05:11:04;5.54;112.25
67748;HTU21D;54543;50.712;6.070;2023-12-20T05:13:29;5.56;111.84
67748;HTU21D;54543;50.712;6.070;2023-12-20T05:15:55;5.55;111.92
67748;HTU21D;54543;50.712;6.070;2023-12-20T05:18:21;5.54;112.03
67748;HTU21D;54543;50.712;6.070;2023-12-20T05:20:49;5.53;112.00
67748;HTU21D;54543;50.712;6.070;2023-12-20T05:23:15;5.54;112.17
67748;HTU21D;54543;50.712;6.070;2023-12-20T05:25:41;5.57;111.55
67748;HTU21D;54543;50.712;6.070;2023-12-20T05:28:06;5.55;111.55
67748;HTU21D;54543;50.712;6.070;2023-12-20T05:30:32;5.57;111.45
67748;HTU21D;54543;50.712;6.070;2023-12-20T05:32:57;5.51;111.78
67748;HTU21D;54543;50.712;6.070;2023-12-20T05:35:23;5.60;111.28
67748;HTU21D;54543;50.712;6.070;2023-12-20T05:37:49;5.54;111.58
67748;HTU21D;54543;50.712;6.070;2023-12-20T05:40:15;5.56;110.89
67748;HTU21D;54543;50.712;6.070;2023-12-20T05:42:41;5.53;110.87
67748;HTU21D;54543;50.712;6.070;2023-12-20T05:45:06;5.54;110.78
67748;HTU21D;54543;50.712;6.070;2023-12-20T05:47:32;5.54;110.83
67748;HTU21D;54543;50.712;6.070;2023-12-20T05:49:58;5.53;111.07
67748;HTU21D;54543;50.712;6.070;2023-12-20T05:52:24;5.55;110.35
67748;HTU21D;54543;50.712;6.070;2023-12-20T05:54:49;5.51;110.26
67748;HTU21D;54543;50.712;6.070;2023-12-20T05:57:15;5.53;110.40
67748;HTU21D;54543;50.712;6.070;2023-12-20T05:59:40;5.53;110.24
67748;HTU21D;54543;50.712;6.070;2023-12-20T06:02:06;5.52;110.37
67748;HTU21D;54543;50.712;6.070;2023-12-20T06:04:32;5.51;110.81
67748;HTU21D;54543;50.712;6.070;2023-12-20T06:06:58;5.51;110.54
67748;HTU21D;54543;50.712;6.070;2023-12-20T06:09:23;5.52;110.84
67748;HTU21D;54543;50.712;6.070;2023-12-20T06:11:49;5.53;110.74
67748;HTU21D;54543;50.712;6.070;2023-12-20T06:14:15;5.53;110.63
67748;HTU21D;54543;50.712;6.070;2023-12-20T06:16:41;5.59;110.17
67748;HTU21D;54543;50.712;6.070;2023-12-20T06:19:07;5.59;109.94
67748;HTU21D;54543;50.712;6.070;2023-12-20T06:21:33;5.54;110.19
67748;HTU21D;54543;50.712;6.070;2023-12-20T06:23:59;5.53;109.63
67748;HTU21D;54543;50.712;6.070;2023-12-20T06:26:24;5.50;110.58
67748;HTU21D;54543;50.712;6.070;2023-12-20T06:28:50;5.55;111.60
67748;HTU21D;54543;50.712;6.070;2023-12-20T06:31:16;5.62;112.93
67748;HTU21D;54543;50.712;6.070;2023-12-20T06:33:43;5.65;110.25
67748;HTU21D;54543;50.712;6.070;2023-12-20T06:36:12;5.66;109.47
67748;HTU21D;54543;50.712;6.070;2023-12-20T06:38:41;5.61;109.28
67748;HTU21D;54543;50.712;6.070;2023-12-20T06:41:07;5.59;108.93
67748;HTU21D;54543;50.712;6.070;2023-12-20T06:43:33;5.54;108.69
67748;HTU21D;54543;50.712;6.070;2023-12-20T06:46:00;5.54;109.46
67748;HTU21D;54543;50.712;6.070;2023-12-20T06:48:26;5.49;108.98
67748;HTU21D;54543;50.712;6.070;2023-12-20T06:50:51;5.42;109.35
67748;HTU21D;54543;50.712;6.070;2023-12-20T06:53:17;5.42;109.43
67748;HTU21D;54543;50.712;6.070;2023-12-20T06:55:43;5.40;109.71
67748;HTU21D;54543;50.712;6.070;2023-12-20T06:58:09;5.45;109.21
67748;HTU21D;54543;50.712;6.070;2023-12-20T07:00:34;5.40;109.36
67748;HTU21D;54543;50.712;6.070;2023-12-20T07:03:00;5.40;109.22
67748;HTU21D;54543;50.712;6.070;2023-12-20T07:05:26;5.40;108.99
67748;HTU21D;54543;50.712;6.070;2023-12-20T07:07:52;5.41;108.75
67748;HTU21D;54543;50.712;6.070;2023-12-20T07:10:17;5.39;108.92
67748;HTU21D;54543;50.712;6.070;2023-12-20T07:12:43;5.36;109.28
67748;HTU21D;54543;50.712;6.070;2023-12-20T07:15:09;5.37;108.98
67748;HTU21D;54543;50.712;6.070;2023-12-20T07:17:35;5.34;109.44
67748;HTU21D;54543;50.712;6.070;2023-12-20T07:20:00;5.36;109.40
67748;HTU21D;54543;50.712;6.070;2023-12-20T07:22:30;5.34;109.51
67748;HTU21D;54543;50.712;6.070;2023-12-20T07:24:58;5.39;109.10
67748;HTU21D;54543;50.712;6.070;2023-12-20T07:27:23;5.39;109.12
67748;HTU21D;54543;50.712;6.070;2023-12-20T07:29:49;5.40;108.83
67748;HTU21D;54543;50.712;6.070;2023-12-20T07:32:14;5.41;108.59
67748;HTU21D;54543;50.712;6.070;2023-12-20T07:34:40;5.42;109.08
67748;HTU21D;54543;50.712;6.070;2023-12-20T07:37:06;5.48;107.95
67748;HTU21D;54543;50.712;6.070;2023-12-20T07:39:31;5.47;107.99
67748;HTU21D;54543;50.712;6.070;2023-12-20T07:41:57;5.47;108.03
67748;HTU21D;54543;50.712;6.070;2023-12-20T07:44:22;5.41;107.86
67748;HTU21D;54543;50.712;6.070;2023-12-20T07:46:48;5.41;108.46
67748;HTU21D;54543;50.712;6.070;2023-12-20T07:49:14;5.46;108.17
67748;HTU21D;54543;50.712;6.070;2023-12-20T07:51:39;5.47;107.71
67748;HTU21D;54543;50.712;6.070;2023-12-20T07:54:05;5.38;107.95
67748;HTU21D;54543;50.712;6.070;2023-12-20T07:56:31;5.38;108.24
67748;HTU21D;54543;50.712;6.070;2023-12-20T07:58:56;5.39;108.27
67748;HTU21D;54543;50.712;6.070;2023-12-20T08:01:22;5.36;108.31
67748;HTU21D;54543;50.712;6.070;2023-12-20T08:03:49;5.39;108.31
67748;HTU21D;54543;50.712;6.070;2023-12-20T08:06:15;5.37;108.65
67748;HTU21D;54543;50.712;6.070;2023-12-20T08:08:42;5.38;109.30
67748;HTU21D;54543;50.712;6.070;2023-12-20T08:11:08;5.43;108.53
67748;HTU21D;54543;50.712;6.070;2023-12-20T08:13:34;5.41;108.16
67748;HTU21D;54543;50.712;6.070;2023-12-20T08:15:59;5.41;107.78
67748;HTU21D;54543;50.712;6.070;2023-12-20T08:18:25;5.45;107.62
67748;HTU21D;54543;50.712;6.070;2023-12-20T08:20:50;5.43;107.91
67748;HTU21D;54543;50.712;6.070;2023-12-20T08:23:19;5.43;107.89
67748;HTU21D;54543;50.712;6.070;2023-12-20T08:25:46;5.40;108.19
67748;HTU21D;54543;50.712;6.070;2023-12-20T08:28:12;5.48;107.99
67748;HTU21D;54543;50.712;6.070;2023-12-20T08:30:37;5.50;107.52
67748;HTU21D;54543;50.712;6.070;2023-12-20T08:33:03;5.52;107.08
67748;HTU21D;54543;50.712;6.070;2023-12-20T08:35:29;5.52;107.49
67748;HTU21D;54543;50.712;6.070;2023-12-20T08:37:54;5.57;107.36
67748;HTU21D;54543;50.712;6.070;2023-12-20T08:40:20;5.60;106.82
67748;HTU21D;54543;50.712;6.070;2023-12-20T08:42:46;5.67;107.33
67748;HTU21D;54543;50.712;6.070;2023-12-20T08:45:11;5.70;106.21
67748;HTU21D;54543;50.712;6.070;2023-12-20T08:47:37;5.69;106.79
67748;HTU21D;54543;50.712;6.070;2023-12-20T08:50:03;5.74;105.22
67748;HTU21D;54543;50.712;6.070;2023-12-20T08:52:29;5.75;105.45
67748;HTU21D;54543;50.712;6.070;2023-12-20T08:54:55;5.76;104.92
67748;HTU21D;54543;50.712;6.070;2023-12-20T08:57:20;5.77;105.32
67748;HTU21D;54543;50.712;6.070;2023-12-20T08:59:47;5.77;104.73
67748;HTU21D;54543;50.712;6.070;2023-12-20T09:02:13;5.79;104.72
67748;HTU21D;54543;50.712;6.070;2023-12-20T09:04:39;5.79;104.66
67748;HTU21D;54543;50.712;6.070;2023-12-20T09:07:05;5.79;104.21
67748;HTU21D;54543;50.712;6.070;2023-12-20T09:09:30;5.78;104.47
67748;HTU21D;54543;50.712;6.070;2023-12-20T09:11:57;5.80;104.88
67748;HTU21D;54543;50.712;6.070;2023-12-20T09:14:23;5.81;104.61
67748;HTU21D;54543;50.712;6.070;2023-12-20T09:16:49;5.78;104.57
67748;HTU21D;54543;50.712;6.070;2023-12-20T09:19:17;5.79;104.57
67748;HTU21D;54543;50.712;6.070;2023-12-20T09:21:42;5.83;104.47
67748;HTU21D;54543;50.712;6.070;2023-12-20T09:24:08;5.80;104.07
67748;HTU21D;54543;50.712;6.070;2023-12-20T09:26:34;5.83;104.55
67748;HTU21D;54543;50.712;6.070;2023-12-20T09:29:00;5.86;104.22
67748;HTU21D;54543;50.712;6.070;2023-12-20T09:31:25;5.87;103.37
67748;HTU21D;54543;50.712;6.070;2023-12-20T09:33:51;5.89;103.82
67748;HTU21D;54543;50.712;6.070;2023-12-20T09:36:16;5.84;103.50
67748;HTU21D;54543;50.712;6.070;2023-12-20T09:38:42;5.85;104.30
67748;HTU21D;54543;50.712;6.070;2023-12-20T09:41:08;5.86;103.86
67748;HTU21D;54543;50.712;6.070;2023-12-20T09:43:37;5.84;103.05
67748;HTU21D;54543;50.712;6.070;2023-12-20T09:46:05;5.83;103.64
67748;HTU21D;54543;50.712;6.070;2023-12-20T09:48:31;5.83;103.08
67748;HTU21D;54543;50.712;6.070;2023-12-20T09:50:58;5.80;103.80
67748;HTU21D;54543;50.712;6.070;2023-12-20T09:53:24;5.82;103.71
67748;HTU21D;54543;50.712;6.070;2023-12-20T09:55:58;5.77;103.71
67748;HTU21D;54543;50.712;6.070;2023-12-20T09:58:27;5.81;103.95
67748;HTU21D;54543;50.712;6.070;2023-12-20T10:00:53;5.84;103.67
67748;HTU21D;54543;50.712;6.070;2023-12-20T10:03:24;5.82;104.79
67748;HTU21D;54543;50.712;6.070;2023-12-20T10:05:54;5.90;103.09
67748;HTU21D;54543;50.712;6.070;2023-12-20T10:08:21;5.92;104.16
67748;HTU21D;54543;50.712;6.070;2023-12-20T10:10:47;5.95;104.22
67748;HTU21D;54543;50.712;6.070;2023-12-20T10:13:13;5.99;104.18
67748;HTU21D;54543;50.712;6.070;2023-12-20T10:15:38;6.01;103.12
67748;HTU21D;54543;50.712;6.070;2023-12-20T10:18:05;6.06;103.21
67748;HTU21D;54543;50.712;6.070;2023-12-20T10:20:31;6.05;103.36
67748;HTU21D;54543;50.712;6.070;2023-12-20T10:23:00;6.04;103.64
67748;HTU21D;54543;50.712;6.070;2023-12-20T10:25:26;6.12;102.28
67748;HTU21D;54543;50.712;6.070;2023-12-20T10:28:16;6.11;102.22
67748;HTU21D;54543;50.712;6.070;2023-12-20T10:30:48;6.14;102.82
67748;HTU21D;54543;50.712;6.070;2023-12-20T10:33:24;6.22;102.32
67748;HTU21D;54543;50.712;6.070;2023-12-20T10:35:50;6.20;102.24
67748;HTU21D;54543;50.712;6.070;2023-12-20T10:38:15;6.22;102.67
67748;HTU21D;54543;50.712;6.070;2023-12-20T10:40:41;6.27;102.63
67748;HTU21D;54543;50.712;6.070;2023-12-20T10:43:08;6.33;100.43
67748;HTU21D;54543;50.712;6.070;2023-12-20T10:45:34;6.41;101.17
67748;HTU21D;54543;50.712;6.070;2023-12-20T10:47:59;6.46;100.02
67748;HTU21D;54543;50.712;6.070;2023-12-20T10:50:27;6.48;99.81
67748;HTU21D;54543;50.712;6.070;2023-12-20T10:52:57;6.53;100.29
67748;HTU21D;54543;50.712;6.070;2023-12-20T10:55:23;6.56;100.24
67748;HTU21D;54543;50.712;6.070;2023-12-20T10:57:51;6.55;99.32
67748;HTU21D;54543;50.712;6.070;2023-12-20T11:00:18;6.51;98.78
67748;HTU21D;54543;50.712;6.070;2023-12-20T11:02:44;6.55;99.22
67748;HTU21D;54543;50.712;6.070;2023-12-20T11:08:06;6.45;100.16
67748;HTU21D;54543;50.712;6.070;2023-12-20T11:13:17;6.41;100.70
67748;HTU21D;54543;50.712;6.070;2023-12-20T11:15:45;6.39;100.44
67748;HTU21D;54543;50.712;6.070;2023-12-20T11:18:11;6.36;100.32
67748;HTU21D;54543;50.712;6.070;2023-12-20T11:20:38;6.39;100.61
67748;HTU21D;54543;50.712;6.070;2023-12-20T11:23:05;6.36;99.51
67748;HTU21D;54543;50.712;6.070;2023-12-20T11:25:55;6.39;100.16
67748;HTU21D;54543;50.712;6.070;2023-12-20T11:28:24;6.39;100.48
67748;HTU21D;54543;50.712;6.070;2023-12-20T11:30:57;6.39;100.00
67748;HTU21D;54543;50.712;6.070;2023-12-20T11:33:46;6.36;99.99
67748;HTU21D;54543;50.712;6.070;2023-12-20T11:36:14;6.33;100.65
67748;HTU21D;54543;50.712;6.070;2023-12-20T11:39:10;6.37;100.38
67748;HTU21D;54543;50.712;6.070;2023-12-20T11:41:36;6.44;99.61
67748;HTU21D;54543;50.712;6.070;2023-12-20T11:44:04;6.43;99.77
67748;HTU21D;54543;50.712;6.070;2023-12-20T11:46:31;6.43;99.83
67748;HTU21D;54543;50.712;6.070;2023-12-20T11:48:56;6.41;99.97
67748;HTU21D;54543;50.712;6.070;2023-12-20T11:51:22;6.41;100.06
67748;HTU21D;54543;50.712;6.070;2023-12-20T11:53:51;6.48;100.47
67748;HTU21D;54543;50.712;6.070;2023-12-20T11:56:18;6.52;98.68
67748;HTU21D;54543;50.712;6.070;2023-12-20T11:58:44;6.56;99.32
67748;HTU21D;54543;50.712;6.070;2023-12-20T12:01:10;6.57;98.26
67748;HTU21D;54543;50.712;6.070;2023-12-20T12:03:36;6.58;98.60
67748;HTU21D;54543;50.712;6.070;2023-12-20T12:06:02;6.63;98.98
67748;HTU21D;54543;50.712;6.070;2023-12-20T12:08:30;6.60;98.59
67748;HTU21D;54543;50.712;6.070;2023-12-20T12:10:55;6.65;99.33
67748;HTU21D;54543;50.712;6.070;2023-12-20T12:13:21;6.64;99.07
67748;HTU21D;54543;50.712;6.070;2023-12-20T12:15:48;6.63;99.47
67748;HTU21D;54543;50.712;6.070;2023-12-20T12:18:17;6.64;99.81
67748;HTU21D;54543;50.712;6.070;2023-12-20T12:20:43;6.61;99.96
67748;HTU21D;54543;50.712;6.070;2023-12-20T12:23:09;6.61;99.89
67748;HTU21D;54543;50.712;6.070;2023-12-20T12:25:37;6.60;99.16
67748;HTU21D;54543;50.712;6.070;2023-12-20T12:28:03;6.58;99.53
67748;HTU21D;54543;50.712;6.070;2023-12-20T12:30:28;6.55;99.86
67748;HTU21D;54543;50.712;6.070;2023-12-20T12:32:56;6.55;99.95
67748;HTU21D;54543;50.712;6.070;2023-12-20T12:35:22;6.56;100.34
67748;HTU21D;54543;50.712;6.070;2023-12-20T12:37:47;6.59;100.15
67748;HTU21D;54543;50.712;6.070;2023-12-20T12:40:14;6.59;100.18
67748;HTU21D;54543;50.712;6.070;2023-12-20T12:42:42;6.58;100.29
67748;HTU21D;54543;50.712;6.070;2023-12-20T12:45:09;6.61;100.65
67748;HTU21D;54543;50.712;6.070;2023-12-20T12:47:37;6.54;102.08
67748;HTU21D;54543;50.712;6.070;2023-12-20T12:50:03;6.50;101.89
67748;HTU21D;54543;50.712;6.070;2023-12-20T12:52:30;6.46;102.74
67748;HTU21D;54543;50.712;6.070;2023-12-20T12:54:56;6.43;103.38
67748;HTU21D;54543;50.712;6.070;2023-12-20T12:57:21;6.48;102.02
67748;HTU21D;54543;50.712;6.070;2023-12-20T12:59:47;6.44;103.31
67748;HTU21D;54543;50.712;6.070;2023-12-20T13:02:13;6.43;103.84
67748;HTU21D;54543;50.712;6.070;2023-12-20T13:04:42;6.40;104.94
67748;HTU21D;54543;50.712;6.070;2023-12-20T13:07:08;6.42;103.98
67748;HTU21D;54543;50.712;6.070;2023-12-20T13:09:36;6.46;103.05
67748;HTU21D;54543;50.712;6.070;2023-12-20T13:12:02;6.46;103.67
67748;HTU21D;54543;50.712;6.070;2023-12-20T13:14:35;6.49;103.73
67748;HTU21D;54543;50.712;6.070;2023-12-20T13:17:02;6.43;104.01
67748;HTU21D;54543;50.712;6.070;2023-12-20T13:19:28;6.40;104.58
67748;HTU21D;54543;50.712;6.070;2023-12-20T13:21:55;6.38;105.30
67748;HTU21D;54543;50.712;6.070;2023-12-20T13:24:21;6.38;105.66
67748;HTU21D;54543;50.712;6.070;2023-12-20T13:26:46;6.37;105.45
67748;HTU21D;54543;50.712;6.070;2023-12-20T13:29:12;6.33;105.74
67748;HTU21D;54543;50.712;6.070;2023-12-20T13:31:38;6.33;106.96
67748;HTU21D;54543;50.712;6.070;2023-12-20T13:34:05;6.31;108.30
67748;HTU21D;54543;50.712;6.070;2023-12-20T13:36:30;6.31;108.59
67748;HTU21D;54543;50.712;6.070;2023-12-20T13:38:56;6.25;110.06
67748;HTU21D;54543;50.712;6.070;2023-12-20T13:41:22;6.23;111.37
67748;HTU21D;54543;50.712;6.070;2023-12-20T13:43:47;6.25;110.70
67748;HTU21D;54543;50.712;6.070;2023-12-20T13:46:13;6.25;110.65
67748;HTU21D;54543;50.712;6.070;2023-12-20T13:48:39;6.25;110.51
67748;HTU21D;54543;50.712;6.070;2023-12-20T13:51:05;6.26;109.96
67748;HTU21D;54543;50.712;6.070;2023-12-20T13:53:31;6.25;110.00
67748;HTU21D;54543;50.712;6.070;2023-12-20T13:55:57;6.27;110.86
67748;HTU21D;54543;50.712;6.070;2023-12-20T13:58:23;6.31;109.43
67748;HTU21D;54543;50.712;6.070;2023-12-20T14:00:48;6.30;110.29
67748;HTU21D;54543;50.712;6.070;2023-12-20T14:03:14;6.33;110.78
67748;HTU21D;54543;50.712;6.070;2023-12-20T14:05:40;6.36;109.67
67748;HTU21D;54543;50.712;6.070;2023-12-20T14:08:06;6.37;109.94
67748;HTU21D;54543;50.712;6.070;2023-12-20T14:10:33;6.40;109.28
67748;HTU21D;54543;50.712;6.070;2023-12-20T14:12:58;6.42;109.19
67748;HTU21D;54543;50.712;6.070;2023-12-20T14:15:24;6.41;109.78
67748;HTU21D;54543;50.712;6.070;2023-12-20T14:17:50;6.42;109.55
67748;HTU21D;54543;50.712;6.070;2023-12-20T14:20:16;6.48;108.80
67748;HTU21D;54543;50.712;6.070;2023-12-20T14:22:42;6.50;108.32
67748;HTU21D;54543;50.712;6.070;2023-12-20T14:25:15;6.50;108.68
67748;HTU21D;54543;50.712;6.070;2023-12-20T14:27:41;6.49;108.97
67748;HTU21D;54543;50.712;6.070;2023-12-20T14:30:09;6.51;108.94
67748;HTU21D;54543;50.712;6.070;2023-12-20T14:32:35;6.53;108.55
67748;HTU21D;54543;50.712;6.070;2023-12-20T14:35:07;6.55;108.29
67748;HTU21D;54543;50.712;6.070;2023-12-20T14:37:34;6.53;108.49
67748;HTU21D;54543;50.712;6.070;2023-12-20T14:40:00;6.55;108.28
67748;HTU21D;54543;50.712;6.070;2023-12-20T14:42:26;6.58;108.34
67748;HTU21D;54543;50.712;6.070;2023-12-20T14:44:51;6.63;107.75
67748;HTU21D;54543;50.712;6.070;2023-12-20T14:47:19;6.64;107.58
67748;HTU21D;54543;50.712;6.070;2023-12-20T14:49:45;6.63;107.83
67748;HTU21D;54543;50.712;6.070;2023-12-20T14:52:13;6.68;108.06
67748;HTU21D;54543;50.712;6.070;2023-12-20T14:54:38;6.70;107.60
67748;HTU21D;54543;50.712;6.070;2023-12-20T14:57:04;6.73;107.87
67748;HTU21D;54543;50.712;6.070;2023-12-20T14:59:30;6.74;108.37
67748;HTU21D;54543;50.712;6.070;2023-12-20T15:01:55;6.79;107.98
67748;HTU21D;54543;50.712;6.070;2023-12-20T15:04:21;6.81;107.49
67748;HTU21D;54543;50.712;6.070;2023-12-20T15:06:54;6.79;107.62
67748;HTU21D;54543;50.712;6.070;2023-12-20T15:09:20;6.75;108.07
67748;HTU21D;54543;50.712;6.070;2023-12-20T15:11:46;6.75;108.16
67748;HTU21D;54543;50.712;6.070;2023-12-20T15:14:11;6.79;107.88
67748;HTU21D;54543;50.712;6.070;2023-12-20T15:16:39;6.80;107.62
67748;HTU21D;54543;50.712;6.070;2023-12-20T15:19:05;6.78;108.01